Terminal Aerodrome Forecast
Issued by NWS Shreveport, LA

Home | Current Version | Previous Version | Text Only | Print | Product List | Glossary On
Versions: 1 2 3 4 5 6 7 8 9 10 11 12 13 14 15 16 17 18 19 20 21 22 23 24 25
000
FTUS44 KSHV 291145
TAFLFK
TAF
KLFK 291145Z 2912/3012 VRB03KT P6SM OVC150
      TEMPO 2912/2913 5SM BR OVC150
     FM291300 VRB03KT 6SM BR OVC150
     FM291400 16005KT P6SM OVC150
     FM291700 VRB04KT P6SM SCT040 OVC130
     FM292100 10004KT P6SM SCT045 BKN250
     FM300200 VRB03KT P6SM OVC250=

USA.gov is the U.S. government's official web portal to all federal, state and local government web resources and services.